sensor_id;sensor_type;location;lat;lon;timestamp;pressure;altitude;pressure_sealevel;temperature;humidity
19210;BME280;9738;51.654;14.238;2023-04-28T00:01:42;100907.66;;;3.34;100.00
19210;BME280;9738;51.654;14.238;2023-04-28T00:04:08;100899.63;;;3.35;100.00
19210;BME280;9738;51.654;14.238;2023-04-28T00:06:34;100903.13;;;3.36;100.00
19210;BME280;9738;51.654;14.238;2023-04-28T00:09:00;100896.16;;;3.35;100.00
19210;BME280;9738;51.654;14.238;2023-04-28T00:11:25;100902.19;;;3.37;100.00
19210;BME280;9738;51.654;14.238;2023-04-28T00:13:52;100909.25;;;3.36;100.00
19210;BME280;9738;51.654;14.238;2023-04-28T00:16:17;100900.47;;;3.36;100.00
19210;BME280;9738;51.654;14.238;2023-04-28T00:18:43;100896.91;;;3.37;100.00
19210;BME280;9738;51.654;14.238;2023-04-28T00:21:10;100888.97;;;3.37;100.00
19210;BME280;9738;51.654;14.238;2023-04-28T00:23:35;100887.84;;;3.41;100.00
19210;BME280;9738;51.654;14.238;2023-04-28T00:26:01;100892.00;;;3.59;100.00
19210;BME280;9738;51.654;14.238;2023-04-28T00:28:28;100890.84;;;3.77;100.00
19210;BME280;9738;51.654;14.238;2023-04-28T00:30:53;100891.66;;;3.92;100.00
19210;BME280;9738;51.654;14.238;2023-04-28T00:33:19;100884.97;;;4.01;100.00
19210;BME280;9738;51.654;14.238;2023-04-28T00:35:45;100888.13;;;4.06;100.00
19210;BME280;9738;51.654;14.238;2023-04-28T00:38:11;100888.13;;;4.06;100.00
19210;BME280;9738;51.654;14.238;2023-04-28T00:40:38;100878.84;;;4.13;100.00
19210;BME280;9738;51.654;14.238;2023-04-28T00:43:04;100876.66;;;4.20;100.00
19210;BME280;9738;51.654;14.238;2023-04-28T00:45:30;100873.00;;;4.22;100.00
19210;BME280;9738;51.654;14.238;2023-04-28T00:47:57;100873.94;;;4.21;100.00
19210;BME280;9738;51.654;14.238;2023-04-28T00:50:24;100870.91;;;4.27;100.00
19210;BME280;9738;51.654;14.238;2023-04-28T00:52:51;100866.91;;;4.34;100.00
19210;BME280;9738;51.654;14.238;2023-04-28T00:55:17;100868.38;;;4.39;100.00
19210;BME280;9738;51.654;14.238;2023-04-28T00:57:44;100866.59;;;4.39;100.00
19210;BME280;9738;51.654;14.238;2023-04-28T01:00:10;100860.66;;;4.36;100.00
19210;BME280;9738;51.654;14.238;2023-04-28T01:02:36;100865.66;;;4.40;100.00
19210;BME280;9738;51.654;14.238;2023-04-28T01:05:03;100853.06;;;4.44;100.00
19210;BME280;9738;51.654;14.238;2023-04-28T01:07:29;100853.59;;;4.49;100.00
19210;BME280;9738;51.654;14.238;2023-04-28T01:09:55;100843.75;;;4.51;100.00
19210;BME280;9738;51.654;14.238;2023-04-28T01:12:22;100850.22;;;4.47;100.00
19210;BME280;9738;51.654;14.238;2023-04-28T01:14:48;100844.59;;;4.51;100.00
19210;BME280;9738;51.654;14.238;2023-04-28T01:17:15;100841.47;;;4.59;100.00
19210;BME280;9738;51.654;14.238;2023-04-28T01:19:41;100838.06;;;4.57;100.00
19210;BME280;9738;51.654;14.238;2023-04-28T01:22:07;100837.66;;;4.63;100.00
19210;BME280;9738;51.654;14.238;2023-04-28T01:24:35;100844.44;;;4.67;100.00
19210;BME280;9738;51.654;14.238;2023-04-28T01:27:01;100835.00;;;4.63;100.00
19210;BME280;9738;51.654;14.238;2023-04-28T01:29:27;100837.47;;;4.66;100.00
19210;BME280;9738;51.654;14.238;2023-04-28T01:31:53;100832.28;;;4.65;100.00
19210;BME280;9738;51.654;14.238;2023-04-28T01:34:19;100841.25;;;4.62;100.00
19210;BME280;9738;51.654;14.238;2023-04-28T01:36:45;100842.94;;;4.63;100.00
19210;BME280;9738;51.654;14.238;2023-04-28T01:39:11;100839.34;;;4.64;100.00
19210;BME280;9738;51.654;14.238;2023-04-28T01:41:37;100836.25;;;4.57;100.00
19210;BME280;9738;51.654;14.238;2023-04-28T01:44:03;100839.00;;;4.56;100.00
19210;BME280;9738;51.654;14.238;2023-04-28T01:46:30;100835.53;;;4.55;100.00
19210;BME280;9738;51.654;14.238;2023-04-28T01:48:56;100840.63;;;4.58;100.00
19210;BME280;9738;51.654;14.238;2023-04-28T01:51:22;100828.53;;;4.54;100.00
19210;BME280;9738;51.654;14.238;2023-04-28T01:53:48;100822.41;;;4.54;100.00
19210;BME280;9738;51.654;14.238;2023-04-28T01:56:14;100827.81;;;4.52;100.00
19210;BME280;9738;51.654;14.238;2023-04-28T01:58:41;100826.19;;;4.50;100.00
19210;BME280;9738;51.654;14.238;2023-04-28T02:01:06;100822.72;;;4.49;100.00
19210;BME280;9738;51.654;14.238;2023-04-28T02:03:33;100821.13;;;4.47;100.00
19210;BME280;9738;51.654;14.238;2023-04-28T02:05:58;100819.75;;;4.41;100.00
19210;BME280;9738;51.654;14.238;2023-04-28T02:08:24;100816.25;;;4.41;100.00
19210;BME280;9738;51.654;14.238;2023-04-28T02:10:50;100815.19;;;4.43;100.00
19210;BME280;9738;51.654;14.238;2023-04-28T02:13:16;100811.50;;;4.46;100.00
19210;BME280;9738;51.654;14.238;2023-04-28T02:15:43;100813.19;;;4.47;100.00
19210;BME280;9738;51.654;14.238;2023-04-28T02:18:09;100813.81;;;4.50;100.00
19210;BME280;9738;51.654;14.238;2023-04-28T02:20:35;100816.28;;;4.53;100.00
19210;BME280;9738;51.654;14.238;2023-04-28T02:23:01;100814.78;;;4.62;100.00
19210;BME280;9738;51.654;14.238;2023-04-28T02:25:27;100811.97;;;4.65;100.00
19210;BME280;9738;51.654;14.238;2023-04-28T02:27:53;100809.38;;;4.64;100.00
19210;BME280;9738;51.654;14.238;2023-04-28T02:30:19;100808.25;;;4.68;100.00
19210;BME280;9738;51.654;14.238;2023-04-28T02:32:46;100809.94;;;4.69;100.00
19210;BME280;9738;51.654;14.238;2023-04-28T02:35:13;100803.50;;;4.73;100.00
19210;BME280;9738;51.654;14.238;2023-04-28T02:37:38;100807.28;;;4.69;100.00
19210;BME280;9738;51.654;14.238;2023-04-28T02:40:05;100804.44;;;4.72;100.00
19210;BME280;9738;51.654;14.238;2023-04-28T02:42:31;100796.28;;;4.75;100.00
19210;BME280;9738;51.654;14.238;2023-04-28T02:44:57;100799.88;;;4.74;100.00
19210;BME280;9738;51.654;14.238;2023-04-28T02:47:23;100795.75;;;4.70;100.00
19210;BME280;9738;51.654;14.238;2023-04-28T02:49:49;100796.28;;;4.62;100.00
19210;BME280;9738;51.654;14.238;2023-04-28T02:52:15;100785.91;;;4.59;100.00
19210;BME280;9738;51.654;14.238;2023-04-28T02:54:41;100783.03;;;4.62;100.00
19210;BME280;9738;51.654;14.238;2023-04-28T02:57:07;100781.34;;;4.61;100.00
19210;BME280;9738;51.654;14.238;2023-04-28T02:59:33;100788.63;;;4.57;100.00
19210;BME280;9738;51.654;14.238;2023-04-28T03:02:00;100786.94;;;4.56;100.00
19210;BME280;9738;51.654;14.238;2023-04-28T03:04:26;100776.47;;;4.55;100.00
19210;BME280;9738;51.654;14.238;2023-04-28T03:06:52;100777.56;;;4.52;100.00
19210;BME280;9738;51.654;14.238;2023-04-28T03:09:18;100775.94;;;4.50;100.00
19210;BME280;9738;51.654;14.238;2023-04-28T03:11:44;100769.69;;;4.51;100.00
19210;BME280;9738;51.654;14.238;2023-04-28T03:14:10;100762.53;;;4.53;100.00
19210;BME280;9738;51.654;14.238;2023-04-28T03:16:37;100761.34;;;4.57;100.00
19210;BME280;9738;51.654;14.238;2023-04-28T03:19:03;100760.50;;;4.56;100.00
19210;BME280;9738;51.654;14.238;2023-04-28T03:21:28;100760.31;;;4.59;100.00
19210;BME280;9738;51.654;14.238;2023-04-28T03:23:55;100753.00;;;4.63;100.00
19210;BME280;9738;51.654;14.238;2023-04-28T03:26:20;100758.28;;;4.63;100.00
19210;BME280;9738;51.654;14.238;2023-04-28T03:28:46;100757.25;;;4.66;100.00
19210;BME280;9738;51.654;14.238;2023-04-28T03:31:13;100756.28;;;4.67;100.00
19210;BME280;9738;51.654;14.238;2023-04-28T03:33:38;100757.31;;;4.64;100.00
19210;BME280;9738;51.654;14.238;2023-04-28T03:36:04;100751.09;;;4.65;100.00
19210;BME280;9738;51.654;14.238;2023-04-28T03:38:31;100756.41;;;4.65;100.00
19210;BME280;9738;51.654;14.238;2023-04-28T03:40:57;100746.31;;;4.57;100.00
19210;BME280;9738;51.654;14.238;2023-04-28T03:43:22;100746.84;;;4.50;100.00
19210;BME280;9738;51.654;14.238;2023-04-28T03:45:49;100747.81;;;4.49;100.00
19210;BME280;9738;51.654;14.238;2023-04-28T03:48:15;100753.81;;;4.51;100.00
19210;BME280;9738;51.654;14.238;2023-04-28T03:50:40;100744.09;;;4.51;100.00
19210;BME280;9738;51.654;14.238;2023-04-28T03:53:07;100742.31;;;4.52;100.00
19210;BME280;9738;51.654;14.238;2023-04-28T03:55:33;100739.69;;;4.52;100.00
19210;BME280;9738;51.654;14.238;2023-04-28T03:57:59;100738.50;;;4.56;100.00
19210;BME280;9738;51.654;14.238;2023-04-28T04:00:25;100740.19;;;4.57;100.00
19210;BME280;9738;51.654;14.238;2023-04-28T04:02:51;100732.06;;;4.60;100.00
19210;BME280;9738;51.654;14.238;2023-04-28T04:05:17;100737.13;;;4.63;100.00
19210;BME280;9738;51.654;14.238;2023-04-28T04:07:43;100736.06;;;4.66;100.00
19210;BME280;9738;51.654;14.238;2023-04-28T04:10:09;100729.72;;;4.68;100.00
19210;BME280;9738;51.654;14.238;2023-04-28T04:12:35;100739.13;;;4.72;100.00
19210;BME280;9738;51.654;14.238;2023-04-28T04:15:01;100728.31;;;4.75;100.00
19210;BME280;9738;51.654;14.238;2023-04-28T04:17:28;100720.19;;;4.78;100.00
19210;BME280;9738;51.654;14.238;2023-04-28T04:19:54;100717.31;;;4.81;100.00
19210;BME280;9738;51.654;14.238;2023-04-28T04:22:20;100717.13;;;4.84;100.00
19210;BME280;9738;51.654;14.238;2023-04-28T04:24:46;100721.47;;;4.85;100.00
19210;BME280;9738;51.654;14.238;2023-04-28T04:27:12;100710.03;;;4.85;100.00
19210;BME280;9738;51.654;14.238;2023-04-28T04:29:38;100713.50;;;4.85;100.00
19210;BME280;9738;51.654;14.238;2023-04-28T04:32:04;100703.66;;;4.87;100.00
19210;BME280;9738;51.654;14.238;2023-04-28T04:34:31;100706.00;;;4.92;100.00
19210;BME280;9738;51.654;14.238;2023-04-28T04:36:57;100704.47;;;5.01;100.00
19210;BME280;9738;51.654;14.238;2023-04-28T04:39:23;100703.09;;;5.08;100.00
19210;BME280;9738;51.654;14.238;2023-04-28T04:41:49;100692.81;;;5.16;100.00
19210;BME280;9738;51.654;14.238;2023-04-28T04:44:15;100696.59;;;5.25;98.72
19210;BME280;9738;51.654;14.238;2023-04-28T04:46:41;100695.06;;;5.33;98.51
19210;BME280;9738;51.654;14.238;2023-04-28T04:49:06;100692.72;;;5.41;97.44
19210;BME280;9738;51.654;14.238;2023-04-28T04:51:33;100684.22;;;5.49;97.64
19210;BME280;9738;51.654;14.238;2023-04-28T04:53:58;100690.88;;;5.55;97.57
19210;BME280;9738;51.654;14.238;2023-04-28T04:56:25;100692.31;;;5.59;97.25
19210;BME280;9738;51.654;14.238;2023-04-28T04:58:51;100683.06;;;5.64;96.70
19210;BME280;9738;51.654;14.238;2023-04-28T05:01:17;100684.41;;;5.70;96.05
19210;BME280;9738;51.654;14.238;2023-04-28T05:03:42;100689.50;;;5.73;94.96
19210;BME280;9738;51.654;14.238;2023-04-28T05:06:09;100678.53;;;5.78;94.37
19210;BME280;9738;51.654;14.238;2023-04-28T05:08:34;100678.91;;;5.84;94.18
19210;BME280;9738;51.654;14.238;2023-04-28T05:11:00;100674.13;;;5.89;94.00
19210;BME280;9738;51.654;14.238;2023-04-28T05:13:27;100670.94;;;5.97;94.16
19210;BME280;9738;51.654;14.238;2023-04-28T05:15:52;100664.56;;;6.00;93.46
19210;BME280;9738;51.654;14.238;2023-04-28T05:18:18;100658.66;;;6.07;94.45
19210;BME280;9738;51.654;14.238;2023-04-28T05:20:44;100668.69;;;6.15;93.04
19210;BME280;9738;51.654;14.238;2023-04-28T05:23:10;100665.56;;;6.21;91.85
19210;BME280;9738;51.654;14.238;2023-04-28T05:25:36;100671.25;;;6.39;92.26
19210;BME280;9738;51.654;14.238;2023-04-28T05:28:02;100670.44;;;6.49;91.22
19210;BME280;9738;51.654;14.238;2023-04-28T05:30:32;100675.25;;;6.67;91.40
19210;BME280;9738;51.654;14.238;2023-04-28T05:32:58;100672.97;;;6.85;88.84
19210;BME280;9738;51.654;14.238;2023-04-28T05:35:25;100661.72;;;6.92;88.46
19210;BME280;9738;51.654;14.238;2023-04-28T05:37:51;100661.00;;;7.01;85.48
19210;BME280;9738;51.654;14.238;2023-04-28T05:40:17;100656.97;;;7.18;87.22
19210;BME280;9738;51.654;14.238;2023-04-28T05:42:43;100661.91;;;7.34;85.19
19210;BME280;9738;51.654;14.238;2023-04-28T05:45:09;100657.78;;;7.41;83.21
19210;BME280;9738;51.654;14.238;2023-04-28T05:47:35;100660.75;;;7.59;84.08
19210;BME280;9738;51.654;14.238;2023-04-28T05:50:02;100651.47;;;7.74;83.43
19210;BME280;9738;51.654;14.238;2023-04-28T05:52:28;100647.38;;;8.02;83.08
19210;BME280;9738;51.654;14.238;2023-04-28T05:54:54;100647.47;;;8.22;82.03
19210;BME280;9738;51.654;14.238;2023-04-28T05:57:20;100649.47;;;8.29;80.41
19210;BME280;9738;51.654;14.238;2023-04-28T05:59:46;100639.34;;;8.44;79.25
19210;BME280;9738;51.654;14.238;2023-04-28T06:02:12;100633.03;;;8.66;77.08
19210;BME280;9738;51.654;14.238;2023-04-28T06:04:38;100629.94;;;8.71;74.46
19210;BME280;9738;51.654;14.238;2023-04-28T06:07:04;100630.44;;;8.85;75.60
19210;BME280;9738;51.654;14.238;2023-04-28T06:09:30;100621.59;;;8.85;73.19
19210;BME280;9738;51.654;14.238;2023-04-28T06:11:56;100627.69;;;9.06;73.44
19210;BME280;9738;51.654;14.238;2023-04-28T06:14:22;100630.78;;;9.21;71.07
19210;BME280;9738;51.654;14.238;2023-04-28T06:16:48;100628.56;;;9.26;70.77
19210;BME280;9738;51.654;14.238;2023-04-28T06:19:15;100621.13;;;9.59;71.39
19210;BME280;9738;51.654;14.238;2023-04-28T06:21:43;100626.31;;;9.99;71.66
19210;BME280;9738;51.654;14.238;2023-04-28T06:24:10;100621.03;;;10.36;69.77
19210;BME280;9738;51.654;14.238;2023-04-28T06:26:36;100622.75;;;10.27;63.28
19210;BME280;9738;51.654;14.238;2023-04-28T06:29:02;100616.19;;;10.49;63.78
19210;BME280;9738;51.654;14.238;2023-04-28T06:31:28;100619.94;;;10.66;62.05
19210;BME280;9738;51.654;14.238;2023-04-28T06:33:54;100618.41;;;10.91;61.69
19210;BME280;9738;51.654;14.238;2023-04-28T06:36:20;100616.53;;;11.19;61.51
19210;BME280;9738;51.654;14.238;2023-04-28T06:38:46;100612.38;;;11.52;58.71
19210;BME280;9738;51.654;14.238;2023-04-28T06:41:12;100612.84;;;11.83;57.96
19210;BME280;9738;51.654;14.238;2023-04-28T06:43:38;100604.63;;;12.03;59.86
19210;BME280;9738;51.654;14.238;2023-04-28T06:46:04;100615.97;;;11.97;57.54
19210;BME280;9738;51.654;14.238;2023-04-28T06:48:30;100611.31;;;11.81;56.32
19210;BME280;9738;51.654;14.238;2023-04-28T06:50:56;100602.50;;;11.88;55.11
19210;BME280;9738;51.654;14.238;2023-04-28T06:53:22;100605.34;;;12.13;55.69
19210;BME280;9738;51.654;14.238;2023-04-28T06:55:48;100600.19;;;12.45;55.11
19210;BME280;9738;51.654;14.238;2023-04-28T06:58:14;100590.94;;;12.40;55.11
19210;BME280;9738;51.654;14.238;2023-04-28T07:00:40;100589.31;;;12.81;57.21
19210;BME280;9738;51.654;14.238;2023-04-28T07:03:06;100597.13;;;13.17;53.97
19210;BME280;9738;51.654;14.238;2023-04-28T07:05:32;100587.09;;;12.77;52.93
19210;BME280;9738;51.654;14.238;2023-04-28T07:07:58;100584.59;;;12.75;55.94
19210;BME280;9738;51.654;14.238;2023-04-28T07:10:25;100590.44;;;12.79;53.26
19210;BME280;9738;51.654;14.238;2023-04-28T07:12:50;100587.19;;;12.25;53.43
19210;BME280;9738;51.654;14.238;2023-04-28T07:15:17;100584.97;;;12.20;54.44
19210;BME280;9738;51.654;14.238;2023-04-28T07:17:43;100591.59;;;12.08;55.04
19210;BME280;9738;51.654;14.238;2023-04-28T07:20:09;100584.34;;;12.00;55.09
19210;BME280;9738;51.654;14.238;2023-04-28T07:22:35;100582.25;;;12.12;56.05
19210;BME280;9738;51.654;14.238;2023-04-28T07:25:02;100580.41;;;11.86;55.55
19210;BME280;9738;51.654;14.238;2023-04-28T07:27:28;100578.91;;;11.84;56.67
19210;BME280;9738;51.654;14.238;2023-04-28T07:29:53;100574.28;;;11.94;56.54
19210;BME280;9738;51.654;14.238;2023-04-28T07:32:20;100569.94;;;12.27;52.75
19210;BME280;9738;51.654;14.238;2023-04-28T07:34:46;100572.69;;;12.35;55.56
19210;BME280;9738;51.654;14.238;2023-04-28T07:37:12;100564.44;;;12.63;57.59
19210;BME280;9738;51.654;14.238;2023-04-28T07:39:38;100564.72;;;12.86;55.31
19210;BME280;9738;51.654;14.238;2023-04-28T07:42:04;100565.53;;;12.86;52.47
19210;BME280;9738;51.654;14.238;2023-04-28T07:44:30;100556.25;;;13.23;54.13
19210;BME280;9738;51.654;14.238;2023-04-28T07:47:01;100548.56;;;13.44;53.57
19210;BME280;9738;51.654;14.238;2023-04-28T07:49:27;100550.59;;;13.42;51.10
19210;BME280;9738;51.654;14.238;2023-04-28T07:51:53;100543.53;;;13.25;51.45
19210;BME280;9738;51.654;14.238;2023-04-28T07:54:21;100542.69;;;13.24;51.14
19210;BME280;9738;51.654;14.238;2023-04-28T07:56:47;100533.41;;;13.03;51.72
19210;BME280;9738;51.654;14.238;2023-04-28T07:59:12;100540.78;;;13.01;50.33
19210;BME280;9738;51.654;14.238;2023-04-28T08:01:39;100537.09;;;13.10;51.09
19210;BME280;9738;51.654;14.238;2023-04-28T08:04:05;100533.75;;;12.99;54.15
19210;BME280;9738;51.654;14.238;2023-04-28T08:06:31;100532.91;;;13.15;51.32
19210;BME280;9738;51.654;14.238;2023-04-28T08:08:59;100529.69;;;12.95;50.30
19210;BME280;9738;51.654;14.238;2023-04-28T08:11:26;100531.59;;;13.11;50.83
19210;BME280;9738;51.654;14.238;2023-04-28T08:13:52;100539.00;;;13.25;51.44
19210;BME280;9738;51.654;14.238;2023-04-28T08:16:19;100529.41;;;13.15;53.13
19210;BME280;9738;51.654;14.238;2023-04-28T08:18:44;100532.78;;;13.33;53.71
19210;BME280;9738;51.654;14.238;2023-04-28T08:21:10;100531.28;;;13.71;51.10
19210;BME280;9738;51.654;14.238;2023-04-28T08:23:36;100535.72;;;14.12;49.95
19210;BME280;9738;51.654;14.238;2023-04-28T08:26:03;100527.09;;;14.41;51.74
19210;BME280;9738;51.654;14.238;2023-04-28T08:28:28;100521.63;;;14.65;49.80
19210;BME280;9738;51.654;14.238;2023-04-28T08:30:55;100519.53;;;15.06;49.77
19210;BME280;9738;51.654;14.238;2023-04-28T08:33:21;100521.19;;;14.84;48.98
19210;BME280;9738;51.654;14.238;2023-04-28T08:35:48;100516.00;;;14.83;47.41
19210;BME280;9738;51.654;14.238;2023-04-28T08:38:15;100508.25;;;14.01;48.50
19210;BME280;9738;51.654;14.238;2023-04-28T08:40:42;100512.63;;;13.86;48.53
19210;BME280;9738;51.654;14.238;2023-04-28T08:43:08;100502.91;;;13.85;49.81
19210;BME280;9738;51.654;14.238;2023-04-28T08:45:43;100505.34;;;14.19;50.64
19210;BME280;9738;51.654;14.238;2023-04-28T08:48:20;100502.25;;;14.47;49.68
19210;BME280;9738;51.654;14.238;2023-04-28T08:50:51;100500.69;;;14.52;51.27
19210;BME280;9738;51.654;14.238;2023-04-28T08:53:22;100498.16;;;14.59;48.31
19210;BME280;9738;51.654;14.238;2023-04-28T08:55:51;100492.78;;;14.82;51.72
19210;BME280;9738;51.654;14.238;2023-04-28T08:58:18;100488.75;;;14.86;47.98
19210;BME280;9738;51.654;14.238;2023-04-28T09:00:44;100486.22;;;15.07;50.50
19210;BME280;9738;51.654;14.238;2023-04-28T09:03:11;100480.81;;;15.16;48.76
19210;BME280;9738;51.654;14.238;2023-04-28T09:05:38;100480.31;;;15.35;48.80
19210;BME280;9738;51.654;14.238;2023-04-28T09:08:03;100466.09;;;15.64;48.13
19210;BME280;9738;51.654;14.238;2023-04-28T09:10:30;100469.75;;;15.86;48.90
19210;BME280;9738;51.654;14.238;2023-04-28T09:12:56;100469.28;;;15.67;46.90
19210;BME280;9738;51.654;14.238;2023-04-28T09:15:37;100465.56;;;15.83;48.57
19210;BME280;9738;51.654;14.238;2023-04-28T09:18:05;100465.94;;;15.95;45.78
19210;BME280;9738;51.654;14.238;2023-04-28T09:20:32;100460.06;;;16.21;45.63
19210;BME280;9738;51.654;14.238;2023-04-28T09:23:18;100457.13;;;16.67;45.98
19210;BME280;9738;51.654;14.238;2023-04-28T09:26:02;100457.25;;;16.95;45.12
19210;BME280;9738;51.654;14.238;2023-04-28T09:28:29;100457.66;;;16.77;43.79
19210;BME280;9738;51.654;14.238;2023-04-28T09:30:56;100463.41;;;16.89;45.54
19210;BME280;9738;51.654;14.238;2023-04-28T09:33:22;100457.19;;;16.88;45.26
19210;BME280;9738;51.654;14.238;2023-04-28T09:35:48;100450.25;;;17.00;45.58
19210;BME280;9738;51.654;14.238;2023-04-28T09:38:15;100450.78;;;17.17;44.95
19210;BME280;9738;51.654;14.238;2023-04-28T09:41:00;100450.06;;;17.30;47.57
19210;BME280;9738;51.654;14.238;2023-04-28T09:43:29;100442.06;;;17.65;44.12
19210;BME280;9738;51.654;14.238;2023-04-28T09:45:56;100433.13;;;17.64;45.42
19210;BME280;9738;51.654;14.238;2023-04-28T09:50:57;100424.22;;;17.42;42.17
19210;BME280;9738;51.654;14.238;2023-04-28T09:53:24;100429.91;;;17.54;44.44
19210;BME280;9738;51.654;14.238;2023-04-28T09:55:55;100422.31;;;17.64;44.82
19210;BME280;9738;51.654;14.238;2023-04-28T09:58:24;100417.16;;;17.69;43.15
19210;BME280;9738;51.654;14.238;2023-04-28T10:00:59;100422.88;;;17.88;45.67
19210;BME280;9738;51.654;14.238;2023-04-28T10:03:30;100415.00;;;18.27;42.23
19210;BME280;9738;51.654;14.238;2023-04-28T10:06:00;100408.63;;;18.61;43.97
19210;BME280;9738;51.654;14.238;2023-04-28T10:08:27;100407.84;;;18.68;39.79
19210;BME280;9738;51.654;14.238;2023-04-28T10:10:52;100405.59;;;18.91;41.51
19210;BME280;9738;51.654;14.238;2023-04-28T10:13:20;100400.19;;;19.04;43.05
19210;BME280;9738;51.654;14.238;2023-04-28T10:15:49;100398.91;;;18.80;42.26
19210;BME280;9738;51.654;14.238;2023-04-28T10:18:16;100397.06;;;19.07;39.91
19210;BME280;9738;51.654;14.238;2023-04-28T10:20:44;100388.28;;;19.45;40.59
19210;BME280;9738;51.654;14.238;2023-04-28T10:25:56;100386.88;;;19.36;37.64
19210;BME280;9738;51.654;14.238;2023-04-28T10:28:23;100374.34;;;19.41;38.21
19210;BME280;9738;51.654;14.238;2023-04-28T10:31:11;100370.16;;;19.59;39.63
19210;BME280;9738;51.654;14.238;2023-04-28T10:33:39;100377.06;;;19.08;42.76
19210;BME280;9738;51.654;14.238;2023-04-28T10:36:06;100365.59;;;19.26;42.75
19210;BME280;9738;51.654;14.238;2023-04-28T10:38:32;100367.47;;;19.32;39.17
19210;BME280;9738;51.654;14.238;2023-04-28T10:40:59;100367.72;;;19.04;38.84
19210;BME280;9738;51.654;14.238;2023-04-28T10:56:10;100350.44;;;18.72;39.76
19210;BME280;9738;51.654;14.238;2023-04-28T10:58:38;100347.28;;;18.95;41.98
19210;BME280;9738;51.654;14.238;2023-04-28T11:01:31;100335.84;;;19.00;42.55
19210;BME280;9738;51.654;14.238;2023-04-28T11:04:05;100346.25;;;18.76;43.25
19210;BME280;9738;51.654;14.238;2023-04-28T11:06:46;100343.56;;;18.96;42.39
19210;BME280;9738;51.654;14.238;2023-04-28T11:19:22;100333.81;;;18.07;41.69
19210;BME280;9738;51.654;14.238;2023-04-28T11:21:53;100331.72;;;18.03;42.78
19210;BME280;9738;51.654;14.238;2023-04-28T11:24:24;100339.00;;;18.09;41.44
19210;BME280;9738;51.654;14.238;2023-04-28T11:26:57;100336.94;;;18.11;41.63
19210;BME280;9738;51.654;14.238;2023-04-28T11:29:35;100337.53;;;18.06;41.29
19210;BME280;9738;51.654;14.238;2023-04-28T11:32:08;100333.81;;;18.01;40.72
19210;BME280;9738;51.654;14.238;2023-04-28T11:34:35;100331.91;;;17.95;42.07
19210;BME280;9738;51.654;14.238;2023-04-28T11:37:02;100336.22;;;17.82;41.53
19210;BME280;9738;51.654;14.238;2023-04-28T11:39:30;100338.25;;;17.80;42.90
19210;BME280;9738;51.654;14.238;2023-04-28T11:42:01;100341.97;;;17.73;40.97
19210;BME280;9738;51.654;14.238;2023-04-28T11:44:29;100326.16;;;17.70;39.84
19210;BME280;9738;51.654;14.238;2023-04-28T11:47:00;100335.47;;;17.67;41.32
19210;BME280;9738;51.654;14.238;2023-04-28T11:51:56;100335.16;;;17.49;40.97
19210;BME280;9738;51.654;14.238;2023-04-28T11:54:26;100332.25;;;17.44;41.51
19210;BME280;9738;51.654;14.238;2023-04-28T11:56:54;100335.53;;;17.39;42.22
19210;BME280;9738;51.654;14.238;2023-04-28T11:59:28;100323.09;;;17.45;42.22
19210;BME280;9738;51.654;14.238;2023-04-28T12:01:57;100330.00;;;17.54;42.81
19210;BME280;9738;51.654;14.238;2023-04-28T12:04:36;100323.50;;;17.42;40.96
19210;BME280;9738;51.654;14.238;2023-04-28T12:07:16;100322.00;;;17.33;41.74
19210;BME280;9738;51.654;14.238;2023-04-28T12:09:47;100327.09;;;17.21;42.02
19210;BME280;9738;51.654;14.238;2023-04-28T12:12:34;100324.59;;;17.19;41.76
19210;BME280;9738;51.654;14.238;2023-04-28T12:15:05;100334.53;;;17.12;41.87
19210;BME280;9738;51.654;14.238;2023-04-28T12:20:04;100325.41;;;16.92;42.60
19210;BME280;9738;51.654;14.238;2023-04-28T12:22:45;100325.97;;;16.81;42.19
19210;BME280;9738;51.654;14.238;2023-04-28T12:25:14;100325.91;;;16.74;44.06
19210;BME280;9738;51.654;14.238;2023-04-28T12:30:31;100330.19;;;16.68;43.57
19210;BME280;9738;51.654;14.238;2023-04-28T12:32:58;100333.09;;;16.67;44.14
19210;BME280;9738;51.654;14.238;2023-04-28T12:35:25;100325.75;;;16.61;43.56
19210;BME280;9738;51.654;14.238;2023-04-28T12:37:52;100325.81;;;16.46;43.91
19210;BME280;9738;51.654;14.238;2023-04-28T12:40:18;100332.03;;;16.46;45.61
19210;BME280;9738;51.654;14.238;2023-04-28T12:42:44;100332.22;;;16.45;45.60
19210;BME280;9738;51.654;14.238;2023-04-28T12:45:11;100331.63;;;16.28;46.85
19210;BME280;9738;51.654;14.238;2023-04-28T12:47:37;100337.41;;;16.04;47.14
19210;BME280;9738;51.654;14.238;2023-04-28T12:50:07;100335.91;;;16.01;48.08
19210;BME280;9738;51.654;14.238;2023-04-28T12:52:34;100335.06;;;16.01;47.70
19210;BME280;9738;51.654;14.238;2023-04-28T12:55:01;100330.44;;;15.94;48.87
19210;BME280;9738;51.654;14.238;2023-04-28T12:57:27;100343.63;;;15.89;47.95
19210;BME280;9738;51.654;14.238;2023-04-28T12:59:54;100333.59;;;15.83;49.59
19210;BME280;9738;51.654;14.238;2023-04-28T13:02:21;100342.91;;;15.66;50.08
19210;BME280;9738;51.654;14.238;2023-04-28T13:04:46;100337.53;;;15.66;51.14
19210;BME280;9738;51.654;14.238;2023-04-28T13:07:14;100342.81;;;15.59;51.57
19210;BME280;9738;51.654;14.238;2023-04-28T13:09:41;100336.75;;;15.57;52.09
19210;BME280;9738;51.654;14.238;2023-04-28T13:12:09;100335.19;;;15.48;52.20
19210;BME280;9738;51.654;14.238;2023-04-28T13:14:36;100332.22;;;15.43;53.52
19210;BME280;9738;51.654;14.238;2023-04-28T13:17:02;100329.44;;;15.36;54.05
19210;BME280;9738;51.654;14.238;2023-04-28T13:19:28;100327.47;;;15.30;56.46
19210;BME280;9738;51.654;14.238;2023-04-28T13:21:56;100325.53;;;15.24;55.75
19210;BME280;9738;51.654;14.238;2023-04-28T13:24:22;100331.00;;;15.31;56.87
19210;BME280;9738;51.654;14.238;2023-04-28T13:26:48;100326.63;;;15.15;57.38